createdAt,value
2022-10-13T00:00:50.625Z,21.72
2022-10-13T00:02:22.075Z,21.73
2022-10-13T00:03:53.543Z,21.72
2022-10-13T00:05:24.936Z,21.72
2022-10-13T00:06:56.352Z,21.71
2022-10-13T00:08:30.624Z,21.72
2022-10-13T00:10:02.037Z,21.72
2022-10-13T00:11:33.501Z,21.71
2022-10-13T00:13:04.929Z,21.72
2022-10-13T00:14:36.331Z,21.71
2022-10-13T00:16:08.175Z,21.71
2022-10-13T00:17:40.031Z,21.71
2022-10-13T00:19:14.959Z,21.71
2022-10-13T00:20:49.827Z,21.72
2022-10-13T00:22:21.472Z,21.70
2022-10-13T00:23:53.112Z,21.71
2022-10-13T00:25:24.513Z,21.71
2022-10-13T00:26:56.071Z,21.71
2022-10-13T00:28:27.558Z,21.70
2022-10-13T00:29:59.013Z,21.71
2022-10-13T00:31:30.854Z,21.70
2022-10-13T00:33:02.257Z,21.70
2022-10-13T00:34:33.638Z,21.70
2022-10-13T00:36:05.901Z,21.69
2022-10-13T00:37:37.329Z,21.69
2022-10-13T00:39:08.724Z,21.69
2022-10-13T00:40:50.136Z,21.69
2022-10-13T00:42:21.847Z,21.70
2022-10-13T00:43:56.321Z,21.70
2022-10-13T00:45:28.312Z,21.68
2022-10-13T00:46:59.695Z,21.70
2022-10-13T00:48:31.125Z,21.68
2022-10-13T00:50:02.574Z,21.69
2022-10-13T00:51:34.780Z,21.68
2022-10-13T00:53:06.184Z,21.68
2022-10-13T00:54:37.581Z,21.66
2022-10-13T00:56:09.445Z,21.67
2022-10-13T00:57:41.357Z,21.68
2022-10-13T00:59:14.789Z,21.68
2022-10-13T01:00:47.237Z,21.68
2022-10-13T01:02:21.285Z,21.68
2022-10-13T01:03:54.321Z,21.67
2022-10-13T01:05:25.739Z,21.68
2022-10-13T01:06:59.697Z,21.67
2022-10-13T01:08:32.258Z,21.68
2022-10-13T01:10:03.719Z,21.68
2022-10-13T01:11:40.685Z,21.67
2022-10-13T01:13:14.062Z,21.67
2022-10-13T01:14:53.293Z,21.67
2022-10-13T01:16:33.658Z,21.67
2022-10-13T01:18:14.116Z,21.66
2022-10-13T01:19:55.066Z,21.67
2022-10-13T01:21:46.737Z,21.66
2022-10-13T01:23:36.788Z,21.66
2022-10-13T01:25:14.009Z,21.66
2022-10-13T01:27:04.129Z,21.66
2022-10-13T01:28:41.789Z,21.66
2022-10-13T01:30:14.786Z,21.65
2022-10-13T01:31:46.194Z,21.65
2022-10-13T01:33:29.784Z,21.66
2022-10-13T01:35:01.197Z,21.66
2022-10-13T01:36:38.608Z,21.66
2022-10-13T01:38:12.723Z,21.66
2022-10-13T01:39:45.129Z,21.66
2022-10-13T01:41:28.527Z,21.65
2022-10-13T01:43:04.312Z,21.65
2022-10-13T01:44:36.309Z,21.66
2022-10-13T01:46:09.714Z,21.65
2022-10-13T01:47:41.102Z,21.65
2022-10-13T01:49:13.123Z,21.65
2022-10-13T01:50:44.543Z,21.64
2022-10-13T01:52:17.344Z,21.65
2022-10-13T01:53:48.942Z,21.65
2022-10-13T01:55:20.358Z,21.65
2022-10-13T01:56:52.630Z,21.64
2022-10-13T01:58:24.554Z,21.65
2022-10-13T01:59:56.608Z,21.65
2022-10-13T02:01:30.466Z,21.65
2022-10-13T02:03:06.336Z,21.65
2022-10-13T02:04:37.745Z,21.65
2022-10-13T02:06:21.198Z,21.65
2022-10-13T02:07:54.747Z,21.65
2022-10-13T02:09:48.352Z,21.65
2022-10-13T02:11:20.292Z,21.65
2022-10-13T02:12:52.727Z,21.63
2022-10-13T02:14:24.723Z,21.63
2022-10-13T02:15:56.899Z,21.64
2022-10-13T02:17:28.322Z,21.65
2022-10-13T02:18:59.718Z,21.63
2022-10-13T02:20:31.139Z,21.64
2022-10-13T02:22:02.551Z,21.64
2022-10-13T02:23:33.949Z,21.64
2022-10-13T02:25:05.616Z,21.63
2022-10-13T02:26:37.018Z,21.63
2022-10-13T02:28:10.612Z,21.63
2022-10-13T02:29:50.661Z,21.62
2022-10-13T02:31:24.042Z,21.63
2022-10-13T02:32:55.467Z,21.63
2022-10-13T02:34:26.848Z,21.62
2022-10-13T02:35:58.237Z,21.63
2022-10-13T02:37:29.805Z,21.63
2022-10-13T02:39:01.218Z,21.62
2022-10-13T02:40:32.611Z,21.63
2022-10-13T02:42:04.245Z,21.62
2022-10-13T02:43:35.649Z,21.62
2022-10-13T02:45:07.407Z,21.62
2022-10-13T02:46:38.792Z,21.62
2022-10-13T02:48:10.198Z,21.62
2022-10-13T02:49:41.582Z,21.62
2022-10-13T02:51:12.981Z,21.62
2022-10-13T02:52:44.384Z,21.62
2022-10-13T02:54:15.805Z,21.62
2022-10-13T02:55:47.205Z,21.62
2022-10-13T02:57:18.584Z,21.62
2022-10-13T02:58:50.394Z,21.62
2022-10-13T03:00:21.764Z,21.61
2022-10-13T03:01:53.813Z,21.61
2022-10-13T03:03:26.189Z,21.61
2022-10-13T03:04:58.044Z,21.61
2022-10-13T03:06:29.447Z,21.61
2022-10-13T03:08:00.855Z,21.61
2022-10-13T03:09:32.287Z,21.60
2022-10-13T03:11:03.696Z,21.61
2022-10-13T03:12:35.070Z,21.61
2022-10-13T03:14:06.479Z,21.61
2022-10-13T03:15:37.860Z,21.61
2022-10-13T03:17:13.412Z,21.61
2022-10-13T03:18:45.110Z,21.60
2022-10-13T03:20:16.680Z,21.60
2022-10-13T03:21:48.083Z,21.61
2022-10-13T03:23:19.481Z,21.61
2022-10-13T03:24:50.898Z,21.62
2022-10-13T03:26:22.290Z,21.60
2022-10-13T03:27:55.088Z,21.60
2022-10-13T03:29:26.486Z,21.61
2022-10-13T03:31:01.396Z,21.60
2022-10-13T03:32:32.816Z,21.60
2022-10-13T03:34:04.208Z,21.60
2022-10-13T03:35:36.014Z,21.61
2022-10-13T03:37:07.416Z,21.60
2022-10-13T03:38:45.836Z,21.60
2022-10-13T03:40:17.297Z,21.60
2022-10-13T03:41:48.701Z,21.59
2022-10-13T03:43:20.084Z,21.59
2022-10-13T03:44:56.150Z,21.60
2022-10-13T03:46:28.442Z,21.60
2022-10-13T03:48:01.664Z,21.60
2022-10-13T03:49:33.051Z,21.60
2022-10-13T03:51:05.228Z,21.59
2022-10-13T03:52:36.631Z,21.59
2022-10-13T03:54:09.503Z,21.60
2022-10-13T03:55:40.934Z,21.59
2022-10-13T03:57:12.337Z,21.59
2022-10-13T03:58:43.766Z,21.59
2022-10-13T04:00:15.437Z,21.60
2022-10-13T04:01:46.887Z,21.59
2022-10-13T04:03:18.326Z,21.59
2022-10-13T04:04:49.875Z,21.59
2022-10-13T04:06:21.483Z,21.60
2022-10-13T04:07:52.883Z,21.59
2022-10-13T04:09:28.829Z,21.59
2022-10-13T04:11:00.749Z,21.60
2022-10-13T04:12:32.149Z,21.59
2022-10-13T04:14:03.564Z,21.58
2022-10-13T04:15:38.214Z,21.58
2022-10-13T04:17:09.609Z,21.58
2022-10-13T04:18:44.459Z,21.59
2022-10-13T04:20:16.339Z,21.59
2022-10-13T04:21:48.208Z,21.59
2022-10-13T04:23:19.857Z,21.57
2022-10-13T04:24:52.243Z,21.58
2022-10-13T04:26:24.086Z,21.58
2022-10-13T04:27:55.467Z,21.57
2022-10-13T04:29:26.872Z,21.58
2022-10-13T04:30:58.508Z,21.57
2022-10-13T04:32:32.950Z,21.58
2022-10-13T04:34:07.151Z,21.58
2022-10-13T04:35:41.318Z,21.57
2022-10-13T04:37:12.723Z,21.57
2022-10-13T04:38:44.163Z,21.56
2022-10-13T04:40:15.613Z,21.57
2022-10-13T04:41:47.030Z,21.56
2022-10-13T04:43:18.425Z,21.59
2022-10-13T04:44:50.102Z,21.56
2022-10-13T04:46:26.051Z,21.58
2022-10-13T04:48:00.254Z,21.56
2022-10-13T04:49:31.650Z,21.57
2022-10-13T04:51:04.201Z,21.57
2022-10-13T04:52:35.769Z,21.56
2022-10-13T04:54:07.239Z,21.57
2022-10-13T04:55:38.644Z,21.57
2022-10-13T04:57:10.043Z,21.58
2022-10-13T04:58:41.806Z,21.56
2022-10-13T05:00:13.460Z,21.56
2022-10-13T05:01:44.909Z,21.58
2022-10-13T05:03:17.848Z,21.58
2022-10-13T05:04:49.253Z,21.57
2022-10-13T05:06:21.815Z,21.56
2022-10-13T05:07:53.829Z,21.56
2022-10-13T05:09:25.212Z,21.55
2022-10-13T05:10:57.135Z,21.56
2022-10-13T05:12:28.526Z,21.56
2022-10-13T05:14:00.811Z,21.56
2022-10-13T05:15:32.206Z,21.56
2022-10-13T05:17:03.597Z,21.55
2022-10-13T05:18:35.110Z,21.56
2022-10-13T05:20:06.779Z,21.55
2022-10-13T05:21:38.608Z,21.55
2022-10-13T05:23:10.023Z,21.55
2022-10-13T05:24:41.411Z,21.55
2022-10-13T05:26:13.685Z,21.55
2022-10-13T05:27:45.079Z,21.55
2022-10-13T05:29:16.488Z,21.55
2022-10-13T05:30:47.894Z,21.55
2022-10-13T05:32:19.493Z,21.56
2022-10-13T05:33:51.168Z,21.54
2022-10-13T05:35:27.065Z,21.54
2022-10-13T05:36:58.753Z,21.55
2022-10-13T05:38:30.141Z,21.54
2022-10-13T05:40:01.548Z,21.55
2022-10-13T05:41:32.932Z,21.56
2022-10-13T05:43:04.316Z,21.56
2022-10-13T05:44:35.719Z,21.56
2022-10-13T05:46:07.303Z,21.56
2022-10-13T05:47:40.734Z,21.56
2022-10-13T05:49:12.143Z,21.54
2022-10-13T05:50:43.515Z,21.55
2022-10-13T05:52:14.947Z,21.53
2022-10-13T05:53:51.029Z,21.50
2022-10-13T05:55:24.422Z,21.55
2022-10-13T05:57:00.468Z,21.55
2022-10-13T05:58:36.738Z,21.56
2022-10-13T06:00:08.644Z,21.57
2022-10-13T06:01:46.060Z,21.56
2022-10-13T06:03:18.226Z,21.57
2022-10-13T06:04:50.686Z,21.56
2022-10-13T06:06:22.667Z,21.56
2022-10-13T06:07:54.069Z,21.55
2022-10-13T06:09:25.915Z,21.56
2022-10-13T06:10:57.319Z,21.56
2022-10-13T06:12:28.739Z,21.56
2022-10-13T06:14:00.133Z,21.56
2022-10-13T06:15:31.555Z,21.56
2022-10-13T06:17:03.416Z,21.57
2022-10-13T06:18:34.799Z,21.56
2022-10-13T06:20:06.689Z,21.56
2022-10-13T06:21:38.085Z,21.56
2022-10-13T06:23:09.601Z,21.56
2022-10-13T06:24:41.007Z,21.56
2022-10-13T06:26:13.263Z,21.58
2022-10-13T06:27:44.650Z,21.57
2022-10-13T06:29:16.058Z,21.57
2022-10-13T06:30:47.812Z,21.58
2022-10-13T06:32:19.580Z,21.57
2022-10-13T06:33:51.101Z,21.57
2022-10-13T06:35:22.806Z,21.58
2022-10-13T06:36:54.213Z,21.57
2022-10-13T06:38:25.625Z,21.57
2022-10-13T06:39:57.014Z,21.52
2022-10-13T06:41:28.413Z,21.59
2022-10-13T06:42:59.823Z,21.59
2022-10-13T06:44:31.667Z,21.60
2022-10-13T06:46:06.126Z,21.60
2022-10-13T06:47:37.551Z,21.60
2022-10-13T06:49:08.982Z,21.60
2022-10-13T06:50:42.923Z,21.60
2022-10-13T06:52:14.473Z,21.61
2022-10-13T06:53:45.928Z,21.61
2022-10-13T06:55:17.323Z,21.60
2022-10-13T06:56:48.746Z,21.60
2022-10-13T06:58:20.148Z,21.61
2022-10-13T06:59:51.548Z,21.61
2022-10-13T07:01:22.988Z,21.60
2022-10-13T07:02:54.376Z,21.60
2022-10-13T07:04:25.775Z,21.64
2022-10-13T07:06:02.038Z,21.70
2022-10-13T07:07:33.480Z,21.76
2022-10-13T07:09:05.286Z,21.80
2022-10-13T07:10:39.641Z,21.84
2022-10-13T07:12:11.053Z,21.87
2022-10-13T07:13:46.137Z,21.92
2022-10-13T07:15:19.813Z,21.97
2022-10-13T07:16:54.079Z,22.05
2022-10-13T07:18:25.459Z,22.09
2022-10-13T07:19:57.959Z,22.12
2022-10-13T07:21:29.758Z,22.15
2022-10-13T07:23:01.298Z,22.18
2022-10-13T07:24:32.731Z,22.21
2022-10-13T07:26:07.884Z,22.22
2022-10-13T07:27:39.314Z,22.25
2022-10-13T07:29:10.721Z,22.28
2022-10-13T07:30:42.125Z,22.29
2022-10-13T07:32:13.554Z,22.32
2022-10-13T07:33:46.024Z,22.35
2022-10-13T07:35:17.532Z,22.38
2022-10-13T07:36:48.922Z,22.41
2022-10-13T07:38:20.352Z,22.41
2022-10-13T07:39:52.835Z,22.42
2022-10-13T07:41:24.320Z,22.40
2022-10-13T07:43:00.182Z,22.40
2022-10-13T07:44:31.587Z,22.40
2022-10-13T07:46:03.118Z,22.40
2022-10-13T07:47:34.555Z,22.39
2022-10-13T07:49:05.949Z,22.40
2022-10-13T07:50:37.368Z,22.40
2022-10-13T07:52:08.778Z,22.41
2022-10-13T07:53:40.965Z,22.42
2022-10-13T07:55:12.360Z,22.42
2022-10-13T07:56:43.814Z,22.41
2022-10-13T07:58:15.185Z,22.42
2022-10-13T07:59:46.596Z,22.42
2022-10-13T08:01:18.145Z,22.40
2022-10-13T08:02:50.012Z,22.38
2022-10-13T08:04:21.417Z,22.34
2022-10-13T08:05:52.842Z,22.33
2022-10-13T08:07:24.245Z,22.29
2022-10-13T08:08:55.718Z,22.28
2022-10-13T08:10:27.452Z,22.27
2022-10-13T08:12:00.924Z,22.24
2022-10-13T08:13:33.276Z,22.23
2022-10-13T08:15:12.494Z,22.22
2022-10-13T08:16:43.915Z,22.21
2022-10-13T08:18:16.829Z,22.22
2022-10-13T08:19:48.224Z,22.25
2022-10-13T08:23:14.452Z,22.33
2022-10-13T08:24:53.385Z,22.37
2022-10-13T08:26:27.780Z,22.39
2022-10-13T08:28:00.608Z,22.44
2022-10-13T08:29:32.168Z,22.46
2022-10-13T08:31:03.794Z,22.48
2022-10-13T08:32:35.303Z,22.46
2022-10-13T08:34:06.813Z,22.49
2022-10-13T08:35:38.245Z,22.51
2022-10-13T08:37:13.413Z,22.53
2022-10-13T08:38:44.997Z,22.55
2022-10-13T08:40:17.007Z,22.58
2022-10-13T08:41:48.424Z,22.60
2022-10-13T08:43:20.617Z,22.63
2022-10-13T08:45:28.368Z,22.65
2022-10-13T08:47:04.677Z,22.65
2022-10-13T08:48:36.714Z,22.67
2022-10-13T08:50:11.850Z,22.68
2022-10-13T08:51:46.904Z,22.70
2022-10-13T08:53:27.932Z,22.73
2022-10-13T08:54:59.343Z,22.74
2022-10-13T08:56:31.945Z,22.73
2022-10-13T08:58:06.192Z,22.73
2022-10-13T08:59:37.603Z,22.74
2022-10-13T09:01:08.978Z,22.75
2022-10-13T09:02:41.493Z,22.75
2022-10-13T09:04:39.428Z,22.77
2022-10-13T09:06:10.851Z,22.78
2022-10-13T09:07:42.279Z,22.77
2022-10-13T09:09:14.185Z,22.75
2022-10-13T09:10:49.947Z,22.76
2022-10-13T09:12:27.358Z,22.72
2022-10-13T09:13:59.324Z,22.71
2022-10-13T09:15:30.731Z,22.71
2022-10-13T09:17:20.976Z,22.70
2022-10-13T09:18:52.404Z,22.69
2022-10-13T09:20:24.668Z,22.69
2022-10-13T09:21:56.818Z,22.69
2022-10-13T09:23:28.229Z,22.68
2022-10-13T09:25:10.049Z,22.68
2022-10-13T09:26:41.722Z,22.68
2022-10-13T09:28:15.902Z,22.67
2022-10-13T09:29:47.344Z,22.66
2022-10-13T09:31:21.623Z,22.68
2022-10-13T09:33:05.526Z,22.66
2022-10-13T09:34:36.933Z,22.66
2022-10-13T09:36:11.044Z,22.67
2022-10-13T09:37:42.474Z,22.68
2022-10-13T09:39:14.657Z,22.67
2022-10-13T09:41:03.915Z,22.66
2022-10-13T09:42:37.046Z,22.65
2022-10-13T09:44:19.606Z,22.64
2022-10-13T09:45:51.062Z,22.62
2022-10-13T09:47:22.814Z,22.63
2022-10-13T09:48:55.683Z,22.64
2022-10-13T09:50:27.648Z,22.65
2022-10-13T09:52:00.428Z,22.64
2022-10-13T09:53:37.984Z,22.62
2022-10-13T09:55:31.325Z,22.63
2022-10-13T09:57:04.298Z,22.63
2022-10-13T09:58:37.031Z,22.64
2022-10-13T10:00:13.687Z,22.63
2022-10-13T10:01:45.712Z,22.62
2022-10-13T10:03:22.047Z,22.61
2022-10-13T10:04:53.500Z,22.60
2022-10-13T10:06:27.697Z,22.61
2022-10-13T10:08:02.719Z,22.60
2022-10-13T10:09:39.434Z,22.61
2022-10-13T10:11:17.946Z,22.64
2022-10-13T10:12:49.361Z,22.64
2022-10-13T10:14:24.590Z,22.65
2022-10-13T10:16:01.642Z,22.67
2022-10-13T10:18:02.262Z,22.68
2022-10-13T10:19:42.727Z,22.67
2022-10-13T10:21:22.380Z,22.70
2022-10-13T10:22:59.145Z,22.72
2022-10-13T10:24:50.847Z,22.74
2022-10-13T10:26:25.005Z,22.74
2022-10-13T10:28:06.818Z,22.76
2022-10-13T10:29:41.237Z,22.77
2022-10-13T10:31:24.630Z,22.77
2022-10-13T10:32:58.832Z,22.79
2022-10-13T10:34:32.654Z,22.79
2022-10-13T10:36:06.889Z,22.80
2022-10-13T10:37:41.355Z,22.81
2022-10-13T10:39:17.243Z,22.84
2022-10-13T10:40:49.978Z,22.85
2022-10-13T10:42:27.155Z,22.86
2022-10-13T10:44:21.976Z,22.85
2022-10-13T10:45:54.026Z,22.84
2022-10-13T10:47:39.709Z,22.86
2022-10-13T10:49:12.853Z,22.86
2022-10-13T10:50:44.331Z,22.87
2022-10-13T10:52:18.303Z,22.89
2022-10-13T10:54:16.110Z,22.92
2022-10-13T10:55:55.121Z,22.94
2022-10-13T10:57:38.325Z,22.95
2022-10-13T10:59:12.811Z,22.94
2022-10-13T11:00:47.709Z,22.95
2022-10-13T11:02:27.197Z,22.95
2022-10-13T11:04:04.028Z,22.93
2022-10-13T11:05:53.881Z,22.93
2022-10-13T11:07:25.325Z,22.91
2022-10-13T11:08:56.701Z,22.90
2022-10-13T11:10:28.251Z,22.88
2022-10-13T11:11:59.882Z,22.87
2022-10-13T11:13:31.275Z,22.87
2022-10-13T11:15:32.102Z,22.85
2022-10-13T11:17:06.718Z,22.83
2022-10-13T11:18:56.720Z,22.81
2022-10-13T11:20:35.090Z,22.78
2022-10-13T11:22:06.460Z,22.77
2022-10-13T11:23:45.147Z,22.79
2022-10-13T11:25:35.192Z,22.78
2022-10-13T11:27:16.249Z,22.78
2022-10-13T11:28:47.963Z,22.78
2022-10-13T11:30:38.383Z,22.77
2022-10-13T11:32:25.106Z,22.76
2022-10-13T11:33:57.551Z,22.76
2022-10-13T11:35:28.954Z,22.76
2022-10-13T11:37:01.081Z,22.76
2022-10-13T11:38:34.100Z,22.75
2022-10-13T11:40:08.174Z,22.74
2022-10-13T11:41:58.191Z,22.74
2022-10-13T11:43:32.354Z,22.76
2022-10-13T11:45:07.066Z,22.76
2022-10-13T11:46:46.866Z,22.76
2022-10-13T11:48:36.785Z,22.76
2022-10-13T11:50:27.069Z,22.76
2022-10-13T11:52:06.748Z,22.76
2022-10-13T11:53:55.551Z,22.75
2022-10-13T11:55:53.092Z,22.77
2022-10-13T11:57:25.284Z,22.79
2022-10-13T11:58:56.713Z,22.79
2022-10-13T12:00:28.120Z,22.81
2022-10-13T12:02:00.315Z,22.82
2022-10-13T12:03:32.786Z,22.83
2022-10-13T12:05:04.264Z,22.84
2022-10-13T12:06:38.329Z,22.82
2022-10-13T12:08:09.738Z,22.81
2022-10-13T12:09:49.199Z,22.83
2022-10-13T12:11:47.054Z,22.82
2022-10-13T12:13:19.831Z,22.79
2022-10-13T12:14:52.447Z,22.79
2022-10-13T12:16:25.292Z,22.81
2022-10-13T12:17:56.689Z,22.81
2022-10-13T12:19:29.301Z,22.81
2022-10-13T12:21:02.028Z,22.80
2022-10-13T12:22:36.817Z,22.81
2022-10-13T12:24:12.330Z,22.82
2022-10-13T12:25:43.707Z,22.81
2022-10-13T12:27:20.352Z,22.81
2022-10-13T12:28:52.013Z,22.81
2022-10-13T12:30:24.713Z,22.82
2022-10-13T12:31:56.194Z,22.83
2022-10-13T12:33:29.132Z,22.86
2022-10-13T12:35:10.699Z,22.87
2022-10-13T12:36:42.115Z,22.89
2022-10-13T12:38:17.338Z,22.91
2022-10-13T12:39:48.868Z,22.86
2022-10-13T12:41:25.271Z,22.91
2022-10-13T12:42:56.688Z,22.91
2022-10-13T12:44:28.582Z,22.92
2022-10-13T12:46:00.012Z,22.93
2022-10-13T12:47:46.253Z,22.93
2022-10-13T12:49:17.729Z,22.94
2022-10-13T12:50:49.239Z,22.97
2022-10-13T12:52:23.193Z,23.00
2022-10-13T12:53:54.959Z,23.03
2022-10-13T12:55:28.175Z,23.04
2022-10-13T12:57:04.334Z,23.05
2022-10-13T12:58:35.748Z,23.05
2022-10-13T13:00:19.250Z,23.02
2022-10-13T13:01:57.927Z,23.00
2022-10-13T13:03:32.909Z,23.01
2022-10-13T13:05:24.261Z,23.01
2022-10-13T13:06:56.424Z,23.00
2022-10-13T13:08:28.448Z,22.99
2022-10-13T13:10:09.015Z,22.97
2022-10-13T13:11:40.816Z,22.94
2022-10-13T13:13:15.921Z,22.95
2022-10-13T13:14:47.940Z,22.95
2022-10-13T13:16:22.105Z,22.93
2022-10-13T13:17:58.408Z,22.95
2022-10-13T13:19:31.260Z,22.96
2022-10-13T13:21:04.613Z,22.97
2022-10-13T13:24:21.876Z,22.98
2022-10-13T13:26:03.847Z,22.97
2022-10-13T13:27:38.988Z,22.95
2022-10-13T13:29:10.413Z,22.94
2022-10-13T13:30:41.973Z,22.95
2022-10-13T13:32:13.813Z,22.98
2022-10-13T13:33:45.647Z,22.99
2022-10-13T13:35:17.129Z,23.00
2022-10-13T13:36:48.946Z,22.97
2022-10-13T13:38:20.360Z,22.97
2022-10-13T13:39:52.123Z,22.97
2022-10-13T13:41:23.573Z,22.95
2022-10-13T13:42:54.982Z,22.95
2022-10-13T13:44:29.877Z,22.93
2022-10-13T13:46:01.335Z,22.92
2022-10-13T13:47:32.745Z,22.91
2022-10-13T13:49:04.126Z,22.89
2022-10-13T13:50:35.851Z,22.88
2022-10-13T13:52:07.231Z,22.89
2022-10-13T13:53:38.664Z,22.87
2022-10-13T13:55:10.072Z,22.86
2022-10-13T13:56:41.463Z,22.84
2022-10-13T13:58:12.866Z,22.83
2022-10-13T13:59:44.255Z,22.82
2022-10-13T14:01:15.901Z,22.81
2022-10-13T14:02:47.451Z,22.78
2022-10-13T14:04:18.848Z,22.78
2022-10-13T14:05:50.262Z,22.80
2022-10-13T14:07:23.671Z,22.82
2022-10-13T14:08:55.774Z,22.83
2022-10-13T14:10:27.191Z,22.82
2022-10-13T14:11:58.598Z,22.82
2022-10-13T14:13:30.005Z,22.81
2022-10-13T14:15:01.391Z,22.78
2022-10-13T14:16:32.791Z,22.77
2022-10-13T14:18:07.958Z,22.78
2022-10-13T14:19:39.340Z,22.78
2022-10-13T14:21:10.761Z,22.78
2022-10-13T14:22:42.180Z,22.78
2022-10-13T14:24:13.574Z,22.77
2022-10-13T14:25:44.964Z,22.76
2022-10-13T14:27:16.399Z,22.76
2022-10-13T14:28:47.941Z,22.77
2022-10-13T14:30:19.508Z,22.75
2022-10-13T14:31:50.914Z,22.75
2022-10-13T14:33:22.305Z,22.75
2022-10-13T14:34:53.706Z,22.75
2022-10-13T14:36:25.261Z,22.75
2022-10-13T14:37:56.667Z,22.75
2022-10-13T14:39:28.363Z,22.75
2022-10-13T14:41:03.296Z,22.74
2022-10-13T14:42:34.689Z,22.74
2022-10-13T14:44:12.498Z,22.73
2022-10-13T14:45:44.442Z,22.74
2022-10-13T14:47:15.847Z,22.75
2022-10-13T14:48:47.240Z,22.75
2022-10-13T14:50:18.645Z,22.75
2022-10-13T14:51:51.851Z,22.77
2022-10-13T14:53:23.364Z,22.78
2022-10-13T14:54:54.773Z,22.79
2022-10-13T14:56:26.737Z,22.80
2022-10-13T14:57:58.720Z,22.78
2022-10-13T14:59:30.214Z,22.78
2022-10-13T15:01:01.628Z,22.78
2022-10-13T15:02:33.043Z,22.78
2022-10-13T15:04:04.429Z,22.77
2022-10-13T15:05:36.717Z,22.75
2022-10-13T15:07:08.126Z,22.73
2022-10-13T15:08:40.492Z,22.73
2022-10-13T15:10:11.887Z,22.72
2022-10-13T15:11:43.359Z,22.72
2022-10-13T15:13:14.763Z,22.70
2022-10-13T15:14:47.778Z,22.71
2022-10-13T15:16:22.779Z,22.72
2022-10-13T15:17:54.242Z,22.72
2022-10-13T15:19:25.944Z,22.72
2022-10-13T15:20:57.502Z,22.71
2022-10-13T15:22:28.917Z,22.71
2022-10-13T15:24:00.320Z,22.72
2022-10-13T15:25:31.706Z,22.73
2022-10-13T15:27:03.131Z,22.73
2022-10-13T15:28:38.474Z,22.73
2022-10-13T15:30:10.150Z,22.74
2022-10-13T15:31:41.556Z,22.73
2022-10-13T15:33:12.957Z,22.75
2022-10-13T15:34:44.545Z,22.75
2022-10-13T15:36:15.930Z,22.76
2022-10-13T15:37:47.384Z,22.76
2022-10-13T15:39:18.786Z,22.78
2022-10-13T15:40:50.182Z,22.77
2022-10-13T15:42:21.928Z,22.76
2022-10-13T15:43:53.577Z,22.75
2022-10-13T15:45:25.002Z,22.74
2022-10-13T15:47:07.499Z,22.73
2022-10-13T15:48:39.754Z,22.72
2022-10-13T15:50:11.159Z,22.72
2022-10-13T15:51:42.556Z,22.72
2022-10-13T15:53:13.973Z,22.73
2022-10-13T15:54:45.359Z,22.73
2022-10-13T15:56:16.754Z,22.73
2022-10-13T15:57:48.208Z,22.71
2022-10-13T15:59:19.604Z,22.71
2022-10-13T16:00:51.057Z,22.73
2022-10-13T16:02:24.023Z,22.73
2022-10-13T16:03:55.500Z,22.72
2022-10-13T16:05:26.954Z,22.72
2022-10-13T16:06:58.361Z,22.73
2022-10-13T16:08:29.755Z,22.73
2022-10-13T16:10:01.363Z,22.73
2022-10-13T16:11:32.745Z,22.73
2022-10-13T16:13:04.158Z,22.73
2022-10-13T16:14:35.568Z,22.74
2022-10-13T16:16:07.083Z,22.75
2022-10-13T16:17:38.551Z,22.76
2022-10-13T16:19:09.961Z,22.77
2022-10-13T16:20:41.376Z,22.76
2022-10-13T16:22:12.774Z,22.76
2022-10-13T16:23:44.407Z,22.75
2022-10-13T16:25:15.804Z,22.75
2022-10-13T16:26:47.202Z,22.75
2022-10-13T16:28:18.637Z,22.74
2022-10-13T16:29:50.057Z,22.74
2022-10-13T16:31:21.439Z,22.77
2022-10-13T16:32:52.850Z,22.76
2022-10-13T16:34:24.237Z,22.78
2022-10-13T16:36:02.091Z,22.80
2022-10-13T16:37:33.505Z,22.83
2022-10-13T16:39:04.937Z,22.86
2022-10-13T16:40:37.317Z,22.85
2022-10-13T16:42:08.775Z,22.83
2022-10-13T16:43:40.281Z,22.84
2022-10-13T16:45:11.680Z,22.82
2022-10-13T16:46:43.311Z,22.82
2022-10-13T16:48:14.786Z,22.81
2022-10-13T16:49:46.357Z,22.82
2022-10-13T16:51:20.179Z,22.85
2022-10-13T16:52:51.616Z,22.84
2022-10-13T16:54:23.027Z,22.83
2022-10-13T16:55:54.613Z,22.82
2022-10-13T16:57:26.141Z,22.81
2022-10-13T16:58:58.312Z,22.80
2022-10-13T17:00:29.732Z,22.78
2022-10-13T17:02:01.351Z,22.77
2022-10-13T17:03:32.801Z,22.76
2022-10-13T17:05:04.370Z,22.76
2022-10-13T17:06:35.789Z,22.77
2022-10-13T17:08:07.332Z,22.77
2022-10-13T17:09:38.854Z,22.79
2022-10-13T17:11:10.511Z,22.78
2022-10-13T17:12:42.409Z,22.79
2022-10-13T17:14:13.866Z,22.79
2022-10-13T17:15:49.261Z,22.80
2022-10-13T17:17:21.337Z,22.80
2022-10-13T17:18:55.946Z,22.79
2022-10-13T17:20:37.849Z,22.80
2022-10-13T17:22:09.361Z,22.79
2022-10-13T17:23:45.900Z,22.80
2022-10-13T17:25:20.443Z,22.79
2022-10-13T17:26:55.179Z,22.79
2022-10-13T17:28:26.712Z,22.78
2022-10-13T17:29:58.470Z,22.77
2022-10-13T17:31:30.038Z,22.77
2022-10-13T17:33:04.391Z,22.77
2022-10-13T17:34:36.555Z,22.77
2022-10-13T17:36:10.147Z,22.77
2022-10-13T17:37:41.680Z,22.78
2022-10-13T17:39:17.144Z,22.76
2022-10-13T17:40:50.304Z,22.76
2022-10-13T17:42:22.509Z,22.76
2022-10-13T17:43:54.451Z,22.76
2022-10-13T17:45:26.614Z,22.76
2022-10-13T17:46:58.427Z,22.76
2022-10-13T17:48:30.608Z,22.75
2022-10-13T17:50:05.679Z,22.74
2022-10-13T17:51:37.942Z,22.72
2022-10-13T17:53:10.126Z,22.70
2022-10-13T17:54:45.307Z,22.69
2022-10-13T17:56:18.212Z,22.69
2022-10-13T17:57:50.085Z,22.69
2022-10-13T17:59:23.194Z,22.70
2022-10-13T18:01:12.302Z,22.68
2022-10-13T18:02:45.245Z,22.68
2022-10-13T18:04:18.638Z,22.66
2022-10-13T18:05:53.060Z,22.66
2022-10-13T18:07:24.733Z,22.65
2022-10-13T18:08:57.063Z,22.64
2022-10-13T18:10:37.019Z,22.62
2022-10-13T18:12:21.981Z,22.61
2022-10-13T18:13:53.965Z,22.59
2022-10-13T18:15:26.901Z,22.58
2022-10-13T18:16:58.812Z,22.57
2022-10-13T18:18:30.821Z,22.57
2022-10-13T18:20:03.729Z,22.55
2022-10-13T18:21:36.455Z,22.55
2022-10-13T18:23:08.607Z,22.54
2022-10-13T18:24:40.654Z,22.51
2022-10-13T18:26:16.488Z,22.51
2022-10-13T18:27:48.667Z,22.50
2022-10-13T18:29:20.683Z,22.48
2022-10-13T18:30:52.781Z,22.47
2022-10-13T18:32:24.935Z,22.47
2022-10-13T18:33:57.525Z,22.46
2022-10-13T18:35:32.489Z,22.46
2022-10-13T18:37:04.118Z,22.44
2022-10-13T18:38:36.398Z,22.43
2022-10-13T18:40:08.249Z,22.41
2022-10-13T18:41:40.193Z,22.40
2022-10-13T18:43:12.193Z,22.39
2022-10-13T18:44:44.060Z,22.38
2022-10-13T18:46:15.811Z,22.37
2022-10-13T18:47:51.092Z,22.35
2022-10-13T18:49:23.266Z,22.33
2022-10-13T18:50:55.374Z,22.33
2022-10-13T18:52:30.326Z,22.32
2022-10-13T18:54:02.403Z,22.30
2022-10-13T18:55:34.662Z,22.30
2022-10-13T18:57:06.729Z,22.28
2022-10-13T18:58:40.484Z,22.29
2022-10-13T19:00:14.961Z,22.27
2022-10-13T19:01:47.183Z,22.27
2022-10-13T19:03:19.259Z,22.26
2022-10-13T19:04:52.348Z,22.26
2022-10-13T19:06:24.762Z,22.25
2022-10-13T19:07:58.565Z,22.24
2022-10-13T19:09:30.432Z,22.24
2022-10-13T19:11:02.459Z,22.24
2022-10-13T19:12:34.866Z,22.23
2022-10-13T19:14:07.295Z,22.23
2022-10-13T19:15:40.966Z,22.23
2022-10-13T19:17:13.161Z,22.21
2022-10-13T19:18:45.025Z,22.21
2022-10-13T19:20:17.054Z,22.21
2022-10-13T19:21:50.087Z,22.21
2022-10-13T19:23:22.211Z,22.19
2022-10-13T19:24:54.375Z,22.19
2022-10-13T19:26:27.849Z,22.19
2022-10-13T19:28:00.091Z,22.10
2022-10-13T19:29:33.861Z,22.18
2022-10-13T19:31:09.156Z,22.19
2022-10-13T19:32:41.279Z,22.18
2022-10-13T19:34:13.558Z,22.17
2022-10-13T19:35:46.529Z,22.16
2022-10-13T19:37:18.806Z,22.17
2022-10-13T19:38:54.710Z,22.16
2022-10-13T19:40:27.720Z,22.16
2022-10-13T19:42:01.059Z,22.15
2022-10-13T19:43:33.290Z,22.15
2022-10-13T19:45:05.891Z,22.15
2022-10-13T19:46:37.863Z,22.15
2022-10-13T19:48:10.073Z,22.16
2022-10-13T19:49:42.202Z,22.15
2022-10-13T19:51:14.368Z,22.15
2022-10-13T19:52:46.397Z,22.15
2022-10-13T19:54:19.176Z,22.15
2022-10-13T19:55:54.466Z,22.14
2022-10-13T19:57:26.655Z,22.14
2022-10-13T19:58:58.942Z,22.12
2022-10-13T20:00:30.817Z,22.12
2022-10-13T20:02:02.830Z,22.12
2022-10-13T20:03:35.034Z,22.12
2022-10-13T20:05:07.184Z,22.11
2022-10-13T20:06:38.784Z,22.11
2022-10-13T20:08:10.504Z,22.10